sensor_id;sensor_type;location;lat;lon;timestamp;pressure;altitude;pressure_sealevel;temperature;humidity
49461;BME280;35355;49.198;-0.368;2022-11-20T00:02:24;100862.50;;;6.45;86.55
49461;BME280;35355;49.198;-0.368;2022-11-20T00:04:49;100856.84;;;6.46;86.06
49461;BME280;35355;49.198;-0.368;2022-11-20T00:07:15;100851.41;;;6.46;86.62
49461;BME280;35355;49.198;-0.368;2022-11-20T00:09:40;100853.09;;;6.47;86.33
49461;BME280;35355;49.198;-0.368;2022-11-20T00:12:05;100847.66;;;6.47;86.21
49461;BME280;35355;49.198;-0.368;2022-11-20T00:14:31;100859.94;;;6.50;86.60
49461;BME280;35355;49.198;-0.368;2022-11-20T00:16:56;100852.63;;;6.50;86.71
49461;BME280;35355;49.198;-0.368;2022-11-20T00:19:21;100857.22;;;6.50;86.42
49461;BME280;35355;49.198;-0.368;2022-11-20T00:21:47;100861.81;;;6.49;86.62
49461;BME280;35355;49.198;-0.368;2022-11-20T00:24:12;100856.19;;;6.51;86.80
49461;BME280;35355;49.198;-0.368;2022-11-20T00:26:38;100852.84;;;6.49;86.81
49461;BME280;35355;49.198;-0.368;2022-11-20T00:29:03;100853.91;;;6.48;86.36
49461;BME280;35355;49.198;-0.368;2022-11-20T00:31:29;100851.19;;;6.48;86.37
49461;BME280;35355;49.198;-0.368;2022-11-20T00:33:55;100847.44;;;6.49;86.75
49461;BME280;35355;49.198;-0.368;2022-11-20T00:36:24;100848.84;;;6.52;86.37
49461;BME280;35355;49.198;-0.368;2022-11-20T00:38:54;100840.72;;;6.52;86.31
49461;BME280;35355;49.198;-0.368;2022-11-20T00:41:21;100839.66;;;6.53;86.00
49461;BME280;35355;49.198;-0.368;2022-11-20T00:43:46;100834.84;;;6.55;86.21
49461;BME280;35355;49.198;-0.368;2022-11-20T00:46:14;100832.13;;;6.55;86.54
49461;BME280;35355;49.198;-0.368;2022-11-20T00:48:40;100828.34;;;6.56;86.36
49461;BME280;35355;49.198;-0.368;2022-11-20T00:51:05;100817.50;;;6.56;86.10
49461;BME280;35355;49.198;-0.368;2022-11-20T00:53:31;100817.03;;;6.59;86.51
49461;BME280;35355;49.198;-0.368;2022-11-20T00:56:04;100808.91;;;6.59;86.71
49461;BME280;35355;49.198;-0.368;2022-11-20T00:58:32;100813.25;;;6.60;85.89
49461;BME280;35355;49.198;-0.368;2022-11-20T01:01:07;100812.44;;;6.59;86.05
49461;BME280;35355;49.198;-0.368;2022-11-20T01:03:35;100808.91;;;6.59;85.95
49461;BME280;35355;49.198;-0.368;2022-11-20T01:06:03;100804.53;;;6.58;86.13
49461;BME280;35355;49.198;-0.368;2022-11-20T01:08:30;100809.38;;;6.56;85.91
49461;BME280;35355;49.198;-0.368;2022-11-20T01:11:05;100802.28;;;6.55;85.74
49461;BME280;35355;49.198;-0.368;2022-11-20T01:13:31;100802.28;;;6.55;86.03
49461;BME280;35355;49.198;-0.368;2022-11-20T01:16:05;100792.50;;;6.54;85.98
49461;BME280;35355;49.198;-0.368;2022-11-20T01:18:31;100803.94;;;6.56;86.33
49461;BME280;35355;49.198;-0.368;2022-11-20T01:21:01;100795.81;;;6.56;86.19
49461;BME280;35355;49.198;-0.368;2022-11-20T01:23:30;100791.44;;;6.55;86.37
49461;BME280;35355;49.198;-0.368;2022-11-20T01:25:56;100801.25;;;6.56;85.86
49461;BME280;35355;49.198;-0.368;2022-11-20T01:28:21;100795.81;;;6.56;86.46
49461;BME280;35355;49.198;-0.368;2022-11-20T01:30:46;100792.03;;;6.57;86.54
49461;BME280;35355;49.198;-0.368;2022-11-20T01:33:12;100792.25;;;6.55;86.45
49461;BME280;35355;49.198;-0.368;2022-11-20T01:35:37;100779.78;;;6.54;86.02
49461;BME280;35355;49.198;-0.368;2022-11-20T01:38:02;100780.59;;;6.55;86.21
49461;BME280;35355;49.198;-0.368;2022-11-20T01:40:28;100772.94;;;6.52;85.67
49461;BME280;35355;49.198;-0.368;2022-11-20T01:43:06;100772.47;;;6.55;85.75
49461;BME280;35355;49.198;-0.368;2022-11-20T01:48:28;100762.66;;;6.54;85.67
49461;BME280;35355;49.198;-0.368;2022-11-20T01:50:55;100763.75;;;6.53;85.98
49461;BME280;35355;49.198;-0.368;2022-11-20T01:53:25;100761.59;;;6.55;86.14
49461;BME280;35355;49.198;-0.368;2022-11-20T01:55:55;100766.56;;;6.58;85.84
49461;BME280;35355;49.198;-0.368;2022-11-20T01:58:26;100759.63;;;6.62;86.04
49461;BME280;35355;49.198;-0.368;2022-11-20T02:00:53;100748.06;;;6.66;86.09
49461;BME280;35355;49.198;-0.368;2022-11-20T02:03:20;100755.47;;;6.71;86.33
49461;BME280;35355;49.198;-0.368;2022-11-20T02:05:57;100753.16;;;6.75;85.90
49461;BME280;35355;49.198;-0.368;2022-11-20T02:08:23;100745.81;;;6.75;85.79
49461;BME280;35355;49.198;-0.368;2022-11-20T02:10:48;100743.22;;;6.80;85.59
49461;BME280;35355;49.198;-0.368;2022-11-20T02:13:14;100736.72;;;6.81;86.22
49461;BME280;35355;49.198;-0.368;2022-11-20T02:15:59;100739.81;;;6.85;86.06
49461;BME280;35355;49.198;-0.368;2022-11-20T02:18:24;100727.06;;;6.85;86.01
49461;BME280;35355;49.198;-0.368;2022-11-20T02:20:53;100733.06;;;6.88;85.72
49461;BME280;35355;49.198;-0.368;2022-11-20T02:25:45;100721.72;;;6.91;85.88
49461;BME280;35355;49.198;-0.368;2022-11-20T02:28:12;100723.38;;;6.92;85.99
49461;BME280;35355;49.198;-0.368;2022-11-20T02:30:37;100707.94;;;6.92;85.79
49461;BME280;35355;49.198;-0.368;2022-11-20T02:33:03;100711.25;;;6.94;85.94
49461;BME280;35355;49.198;-0.368;2022-11-20T02:37:55;100693.66;;;6.97;85.40
49461;BME280;35355;49.198;-0.368;2022-11-20T02:40:21;100694.25;;;6.99;85.18
49461;BME280;35355;49.198;-0.368;2022-11-20T02:42:47;100690.72;;;6.98;85.35
49461;BME280;35355;49.198;-0.368;2022-11-20T02:45:12;100681.72;;;6.98;85.11
49461;BME280;35355;49.198;-0.368;2022-11-20T02:47:38;100673.59;;;6.98;85.66
49461;BME280;35355;49.198;-0.368;2022-11-20T02:50:04;100675.81;;;7.01;84.94
49461;BME280;35355;49.198;-0.368;2022-11-20T02:52:30;100664.16;;;7.00;85.19
49461;BME280;35355;49.198;-0.368;2022-11-20T02:54:55;100672.06;;;7.02;85.86
49461;BME280;35355;49.198;-0.368;2022-11-20T02:57:21;100666.06;;;7.00;84.92
49461;BME280;35355;49.198;-0.368;2022-11-20T02:59:46;100653.63;;;7.04;85.18
49461;BME280;35355;49.198;-0.368;2022-11-20T03:02:11;100652.34;;;7.07;85.30
49461;BME280;35355;49.198;-0.368;2022-11-20T03:04:37;100650.47;;;7.07;85.57
49461;BME280;35355;49.198;-0.368;2022-11-20T03:07:02;100652.94;;;7.09;85.61
49461;BME280;35355;49.198;-0.368;2022-11-20T03:09:28;100649.97;;;7.10;84.96
49461;BME280;35355;49.198;-0.368;2022-11-20T03:11:53;100635.00;;;7.08;85.30
49461;BME280;35355;49.198;-0.368;2022-11-20T03:14:18;100633.69;;;7.10;85.33
49461;BME280;35355;49.198;-0.368;2022-11-20T03:16:44;100625.31;;;7.12;85.08
49461;BME280;35355;49.198;-0.368;2022-11-20T03:19:11;100632.13;;;7.14;85.32
49461;BME280;35355;49.198;-0.368;2022-11-20T03:21:36;100627.78;;;7.13;85.53
49461;BME280;35355;49.198;-0.368;2022-11-20T03:24:02;100630.00;;;7.16;85.19
49461;BME280;35355;49.198;-0.368;2022-11-20T03:26:28;100617.25;;;7.17;85.28
49461;BME280;35355;49.198;-0.368;2022-11-20T03:28:56;100620.56;;;7.19;85.23
49461;BME280;35355;49.198;-0.368;2022-11-20T03:31:24;100609.72;;;7.19;85.33
49461;BME280;35355;49.198;-0.368;2022-11-20T03:33:51;100607.81;;;7.19;84.97
49461;BME280;35355;49.198;-0.368;2022-11-20T03:36:17;100596.13;;;7.19;85.06
49461;BME280;35355;49.198;-0.368;2022-11-20T03:38:43;100592.56;;;7.18;84.97
49461;BME280;35355;49.198;-0.368;2022-11-20T03:41:15;100595.88;;;7.20;85.32
49461;BME280;35355;49.198;-0.368;2022-11-20T03:43:41;100586.91;;;7.20;84.73
49461;BME280;35355;49.198;-0.368;2022-11-20T03:46:07;100588.81;;;7.19;85.23
49461;BME280;35355;49.198;-0.368;2022-11-20T03:48:32;100589.63;;;7.20;84.65
49461;BME280;35355;49.198;-0.368;2022-11-20T03:51:15;100595.41;;;7.24;85.03
49461;BME280;35355;49.198;-0.368;2022-11-20T03:53:42;100591.59;;;7.25;85.07
49461;BME280;35355;49.198;-0.368;2022-11-20T03:56:08;100579.09;;;7.24;84.84
49461;BME280;35355;49.198;-0.368;2022-11-20T03:58:36;100581.81;;;7.24;84.66
49461;BME280;35355;49.198;-0.368;2022-11-20T04:01:06;100579.69;;;7.26;84.47
49461;BME280;35355;49.198;-0.368;2022-11-20T04:03:31;100580.25;;;7.28;84.70
49461;BME280;35355;49.198;-0.368;2022-11-20T04:06:02;100574.34;;;7.31;84.89
49461;BME280;35355;49.198;-0.368;2022-11-20T04:08:29;100568.69;;;7.32;85.14
49461;BME280;35355;49.198;-0.368;2022-11-20T04:10:54;100566.78;;;7.33;84.79
49461;BME280;35355;49.198;-0.368;2022-11-20T04:13:19;100567.59;;;7.33;84.69
49461;BME280;35355;49.198;-0.368;2022-11-20T04:15:45;100561.66;;;7.36;84.69
49461;BME280;35355;49.198;-0.368;2022-11-20T04:18:10;100553.28;;;7.38;84.68
49461;BME280;35355;49.198;-0.368;2022-11-20T04:20:35;100549.75;;;7.37;84.40
49461;BME280;35355;49.198;-0.368;2022-11-20T04:23:01;100550.09;;;7.41;84.61
49461;BME280;35355;49.198;-0.368;2022-11-20T04:25:26;100548.19;;;7.42;84.58
49461;BME280;35355;49.198;-0.368;2022-11-20T04:27:51;100544.41;;;7.43;84.37
49461;BME280;35355;49.198;-0.368;2022-11-20T04:30:17;100547.69;;;7.45;84.79
49461;BME280;35355;49.198;-0.368;2022-11-20T04:32:42;100528.94;;;7.43;84.90
49461;BME280;35355;49.198;-0.368;2022-11-20T04:35:08;100530.59;;;7.44;84.88
49461;BME280;35355;49.198;-0.368;2022-11-20T04:37:33;100536.84;;;7.45;84.98
49461;BME280;35355;49.198;-0.368;2022-11-20T04:39:58;100524.66;;;7.47;84.39
49461;BME280;35355;49.198;-0.368;2022-11-20T04:42:24;100517.59;;;7.46;84.93
49461;BME280;35355;49.198;-0.368;2022-11-20T04:44:55;100516.53;;;7.47;84.87
49461;BME280;35355;49.198;-0.368;2022-11-20T04:47:21;100519.25;;;7.47;85.00
49461;BME280;35355;49.198;-0.368;2022-11-20T04:49:46;100518.66;;;7.45;84.94
49461;BME280;35355;49.198;-0.368;2022-11-20T04:52:12;100509.69;;;7.45;84.58
49461;BME280;35355;49.198;-0.368;2022-11-20T04:54:37;100517.50;;;7.41;85.10
49461;BME280;35355;49.198;-0.368;2022-11-20T04:57:03;100517.25;;;7.43;84.68
49461;BME280;35355;49.198;-0.368;2022-11-20T04:59:28;100515.13;;;7.45;84.57
49461;BME280;35355;49.198;-0.368;2022-11-20T05:01:54;100508.03;;;7.44;85.31
49461;BME280;35355;49.198;-0.368;2022-11-20T05:04:19;100503.44;;;7.44;85.27
49461;BME280;35355;49.198;-0.368;2022-11-20T05:06:44;100504.00;;;7.46;85.11
49461;BME280;35355;49.198;-0.368;2022-11-20T05:09:11;100498.56;;;7.46;84.83
49461;BME280;35355;49.198;-0.368;2022-11-20T05:11:37;100491.25;;;7.47;85.11
49461;BME280;35355;49.198;-0.368;2022-11-20T05:14:02;100486.06;;;7.45;84.92
49461;BME280;35355;49.198;-0.368;2022-11-20T05:16:28;100483.03;;;7.42;85.06
49461;BME280;35355;49.198;-0.368;2022-11-20T05:18:53;100487.66;;;7.41;85.50
49461;BME280;35355;49.198;-0.368;2022-11-20T05:41:19;100478.13;;;6.64;85.74
49461;BME280;35355;49.198;-0.368;2022-11-20T05:43:46;100484.16;;;6.66;86.01
49461;BME280;35355;49.198;-0.368;2022-11-20T05:46:14;100480.47;;;6.72;86.19
49461;BME280;35355;49.198;-0.368;2022-11-20T05:48:41;100478.69;;;6.78;86.17
49461;BME280;35355;49.198;-0.368;2022-11-20T05:51:08;100486.16;;;6.88;86.79
49461;BME280;35355;49.198;-0.368;2022-11-20T05:53:35;100484.13;;;6.95;86.84
49461;BME280;35355;49.198;-0.368;2022-11-20T05:56:05;100478.31;;;7.03;86.94
49461;BME280;35355;49.198;-0.368;2022-11-20T05:58:32;100468.38;;;7.09;86.74
49461;BME280;35355;49.198;-0.368;2022-11-20T06:01:07;100475.28;;;7.16;87.22
49461;BME280;35355;49.198;-0.368;2022-11-20T06:03:33;100479.16;;;7.20;86.69
49461;BME280;35355;49.198;-0.368;2022-11-20T06:06:00;100473.81;;;7.26;87.36
49461;BME280;35355;49.198;-0.368;2022-11-20T06:08:26;100467.88;;;7.29;87.35
49461;BME280;35355;49.198;-0.368;2022-11-20T06:10:51;100466.31;;;7.33;86.97
49461;BME280;35355;49.198;-0.368;2022-11-20T06:13:17;100465.00;;;7.35;87.06
49461;BME280;35355;49.198;-0.368;2022-11-20T06:15:48;100462.63;;;7.39;86.81
49461;BME280;35355;49.198;-0.368;2022-11-20T06:18:13;100458.00;;;7.40;87.15
49461;BME280;35355;49.198;-0.368;2022-11-20T06:20:39;100462.13;;;7.42;87.68
49461;BME280;35355;49.198;-0.368;2022-11-20T06:23:04;100464.34;;;7.45;87.59
49461;BME280;35355;49.198;-0.368;2022-11-20T06:25:29;100464.94;;;7.47;87.10
49461;BME280;35355;49.198;-0.368;2022-11-20T06:27:55;100466.31;;;7.50;87.16
49461;BME280;35355;49.198;-0.368;2022-11-20T06:30:20;100464.19;;;7.52;87.51
49461;BME280;35355;49.198;-0.368;2022-11-20T06:32:45;100467.72;;;7.52;87.17
49461;BME280;35355;49.198;-0.368;2022-11-20T06:35:11;100474.78;;;7.53;87.56
49461;BME280;35355;49.198;-0.368;2022-11-20T06:37:36;100466.16;;;7.57;87.32
49461;BME280;35355;49.198;-0.368;2022-11-20T06:40:02;100471.31;;;7.58;87.34
49461;BME280;35355;49.198;-0.368;2022-11-20T06:42:27;100480.28;;;7.59;87.90
49461;BME280;35355;49.198;-0.368;2022-11-20T06:44:53;100484.66;;;7.60;87.34
49461;BME280;35355;49.198;-0.368;2022-11-20T06:47:18;100486.31;;;7.61;87.63
49461;BME280;35355;49.198;-0.368;2022-11-20T06:49:43;100479.31;;;7.65;87.39
49461;BME280;35355;49.198;-0.368;2022-11-20T06:52:09;100480.38;;;7.64;87.57
49461;BME280;35355;49.198;-0.368;2022-11-20T06:54:34;100479.06;;;7.66;87.73
49461;BME280;35355;49.198;-0.368;2022-11-20T06:56:59;100463.59;;;7.67;87.40
49461;BME280;35355;49.198;-0.368;2022-11-20T06:59:25;100461.19;;;7.70;87.53
49461;BME280;35355;49.198;-0.368;2022-11-20T07:01:50;100453.88;;;7.71;87.87
49461;BME280;35355;49.198;-0.368;2022-11-20T07:04:15;100455.50;;;7.72;87.54
49461;BME280;35355;49.198;-0.368;2022-11-20T07:06:41;100450.91;;;7.72;88.14
49461;BME280;35355;49.198;-0.368;2022-11-20T07:09:06;100444.16;;;7.75;88.06
49461;BME280;35355;49.198;-0.368;2022-11-20T07:11:31;100432.44;;;7.75;87.78
49461;BME280;35355;49.198;-0.368;2022-11-20T07:13:57;100430.78;;;7.73;88.10
49461;BME280;35355;49.198;-0.368;2022-11-20T07:16:22;100428.31;;;7.72;87.96
49461;BME280;35355;49.198;-0.368;2022-11-20T07:18:47;100428.56;;;7.70;87.65
49461;BME280;35355;49.198;-0.368;2022-11-20T07:21:13;100424.50;;;7.68;88.19
49461;BME280;35355;49.198;-0.368;2022-11-20T07:23:38;100417.09;;;7.63;87.62
49461;BME280;35355;49.198;-0.368;2022-11-20T07:26:09;100419.56;;;7.65;88.10
49461;BME280;35355;49.198;-0.368;2022-11-20T07:28:35;100408.09;;;7.63;88.08
49461;BME280;35355;49.198;-0.368;2022-11-20T07:31:01;100405.38;;;7.63;88.43
49461;BME280;35355;49.198;-0.368;2022-11-20T07:33:27;100396.94;;;7.59;88.29
49461;BME280;35355;49.198;-0.368;2022-11-20T07:35:53;100403.13;;;7.54;88.28
49461;BME280;35355;49.198;-0.368;2022-11-20T07:38:18;100408.78;;;7.53;88.50
49461;BME280;35355;49.198;-0.368;2022-11-20T07:40:44;100414.53;;;7.57;88.41
49461;BME280;35355;49.198;-0.368;2022-11-20T07:43:09;100406.44;;;7.62;89.04
49461;BME280;35355;49.198;-0.368;2022-11-20T07:45:35;100414.44;;;7.68;88.69
49461;BME280;35355;49.198;-0.368;2022-11-20T07:48:00;100416.47;;;7.78;88.74
49461;BME280;35355;49.198;-0.368;2022-11-20T07:50:25;100419.25;;;7.83;88.90
49461;BME280;35355;49.198;-0.368;2022-11-20T07:52:51;100422.88;;;7.89;88.69
49461;BME280;35355;49.198;-0.368;2022-11-20T07:55:17;100423.50;;;7.96;88.52
49461;BME280;35355;49.198;-0.368;2022-11-20T07:57:42;100430.38;;;8.04;88.60
49461;BME280;35355;49.198;-0.368;2022-11-20T08:00:09;100427.75;;;8.09;88.65
49461;BME280;35355;49.198;-0.368;2022-11-20T08:02:41;100433.50;;;8.13;88.66
49461;BME280;35355;49.198;-0.368;2022-11-20T08:05:08;100426.16;;;8.13;88.66
49461;BME280;35355;49.198;-0.368;2022-11-20T08:07:38;100428.63;;;8.15;88.40
49461;BME280;35355;49.198;-0.368;2022-11-20T08:10:04;100426.72;;;8.15;88.08
49461;BME280;35355;49.198;-0.368;2022-11-20T08:12:29;100421.84;;;8.17;88.28
49461;BME280;35355;49.198;-0.368;2022-11-20T08:15:13;100419.47;;;8.21;88.73
49461;BME280;35355;49.198;-0.368;2022-11-20T08:17:39;100419.78;;;8.24;88.38
49461;BME280;35355;49.198;-0.368;2022-11-20T08:20:04;100422.53;;;8.30;88.33
49461;BME280;35355;49.198;-0.368;2022-11-20T08:22:30;100426.13;;;8.35;88.57
49461;BME280;35355;49.198;-0.368;2022-11-20T08:24:55;100424.56;;;8.39;88.30
49461;BME280;35355;49.198;-0.368;2022-11-20T08:27:20;100421.09;;;8.44;88.61
49461;BME280;35355;49.198;-0.368;2022-11-20T08:29:46;100426.59;;;8.49;88.70
49461;BME280;35355;49.198;-0.368;2022-11-20T08:32:11;100434.25;;;8.52;88.43
49461;BME280;35355;49.198;-0.368;2022-11-20T08:34:36;100437.00;;;8.57;88.89
49461;BME280;35355;49.198;-0.368;2022-11-20T08:37:02;100435.44;;;8.62;88.58
49461;BME280;35355;49.198;-0.368;2022-11-20T08:39:27;100433.28;;;8.64;88.81
49461;BME280;35355;49.198;-0.368;2022-11-20T08:41:53;100447.50;;;8.71;88.64
49461;BME280;35355;49.198;-0.368;2022-11-20T08:44:18;100445.91;;;8.75;88.63
49461;BME280;35355;49.198;-0.368;2022-11-20T08:46:44;100451.97;;;8.82;88.70
49461;BME280;35355;49.198;-0.368;2022-11-20T08:49:11;100456.38;;;8.88;88.84
49461;BME280;35355;49.198;-0.368;2022-11-20T08:51:38;100462.44;;;8.95;88.79
49461;BME280;35355;49.198;-0.368;2022-11-20T08:54:04;100455.97;;;9.02;88.81
49461;BME280;35355;49.198;-0.368;2022-11-20T08:56:30;100463.09;;;9.08;88.92
49461;BME280;35355;49.198;-0.368;2022-11-20T08:58:55;100469.13;;;9.15;88.78
49461;BME280;35355;49.198;-0.368;2022-11-20T09:01:22;100459.97;;;9.21;88.80
49461;BME280;35355;49.198;-0.368;2022-11-20T09:03:50;100460.81;;;9.27;88.73
49461;BME280;35355;49.198;-0.368;2022-11-20T09:06:16;100463.06;;;9.35;89.14
49461;BME280;35355;49.198;-0.368;2022-11-20T09:08:42;100460.34;;;9.40;89.01
49461;BME280;35355;49.198;-0.368;2022-11-20T09:11:08;100460.97;;;9.47;88.84
49461;BME280;35355;49.198;-0.368;2022-11-20T09:13:34;100467.53;;;9.52;88.93
49461;BME280;35355;49.198;-0.368;2022-11-20T09:16:03;100477.66;;;9.56;89.15
49461;BME280;35355;49.198;-0.368;2022-11-20T09:18:29;100482.56;;;9.59;89.19
49461;BME280;35355;49.198;-0.368;2022-11-20T09:21:00;100481.50;;;9.60;89.09
49461;BME280;35355;49.198;-0.368;2022-11-20T09:23:26;100491.84;;;9.58;88.92
49461;BME280;35355;49.198;-0.368;2022-11-20T09:25:52;100493.72;;;9.53;89.08
49461;BME280;35355;49.198;-0.368;2022-11-20T09:28:18;100503.75;;;9.47;89.21
49461;BME280;35355;49.198;-0.368;2022-11-20T09:30:43;100520.59;;;9.44;89.40
49461;BME280;35355;49.198;-0.368;2022-11-20T09:33:09;100516.22;;;9.43;89.71
49461;BME280;35355;49.198;-0.368;2022-11-20T09:35:34;100518.97;;;9.43;90.20
49461;BME280;35355;49.198;-0.368;2022-11-20T09:38:07;100529.38;;;9.51;89.86
49461;BME280;35355;49.198;-0.368;2022-11-20T09:40:34;100532.66;;;9.53;90.01
49461;BME280;35355;49.198;-0.368;2022-11-20T09:43:15;100535.13;;;9.55;89.88
49461;BME280;35355;49.198;-0.368;2022-11-20T09:48:47;100537.59;;;9.56;90.08
49461;BME280;35355;49.198;-0.368;2022-11-20T09:51:57;100536.25;;;9.59;90.27
49461;BME280;35355;49.198;-0.368;2022-11-20T09:54:26;100541.50;;;9.65;90.72
49461;BME280;35355;49.198;-0.368;2022-11-20T09:56:59;100539.34;;;9.73;90.68
49461;BME280;35355;49.198;-0.368;2022-11-20T09:59:42;100542.13;;;9.78;90.45
49461;BME280;35355;49.198;-0.368;2022-11-20T10:04:58;100556.09;;;9.87;90.72
49461;BME280;35355;49.198;-0.368;2022-11-20T10:10:33;100553.44;;;9.97;90.82
49461;BME280;35355;49.198;-0.368;2022-11-20T10:13:10;100555.91;;;9.98;90.47
49461;BME280;35355;49.198;-0.368;2022-11-20T10:21:32;100566.03;;;10.08;90.14
49461;BME280;35355;49.198;-0.368;2022-11-20T10:29:33;100564.50;;;10.17;90.16
49461;BME280;35355;49.198;-0.368;2022-11-20T10:32:04;100563.97;;;10.21;89.78
49461;BME280;35355;49.198;-0.368;2022-11-20T10:34:54;100580.59;;;10.24;90.12
49461;BME280;35355;49.198;-0.368;2022-11-20T10:37:25;100571.34;;;10.25;89.56
49461;BME280;35355;49.198;-0.368;2022-11-20T10:42:49;100553.38;;;10.29;89.39
49461;BME280;35355;49.198;-0.368;2022-11-20T10:48:01;100553.41;;;10.34;89.02
49461;BME280;35355;49.198;-0.368;2022-11-20T10:50:35;100548.53;;;10.37;89.06
49461;BME280;35355;49.198;-0.368;2022-11-20T10:55:50;100554.81;;;10.42;88.93
49461;BME280;35355;49.198;-0.368;2022-11-20T10:58:35;100555.94;;;10.46;88.80
49461;BME280;35355;49.198;-0.368;2022-11-20T11:01:17;100552.94;;;10.48;88.93
49461;BME280;35355;49.198;-0.368;2022-11-20T11:03:43;100566.31;;;10.49;88.37
49461;BME280;35355;49.198;-0.368;2022-11-20T11:06:33;100565.78;;;10.52;88.54
49461;BME280;35355;49.198;-0.368;2022-11-20T11:09:04;100578.34;;;10.53;88.07
49461;BME280;35355;49.198;-0.368;2022-11-20T11:11:34;100574.00;;;10.58;88.25
49461;BME280;35355;49.198;-0.368;2022-11-20T11:14:07;100570.47;;;10.62;88.03
49461;BME280;35355;49.198;-0.368;2022-11-20T11:16:32;100566.66;;;10.63;87.72
49461;BME280;35355;49.198;-0.368;2022-11-20T11:19:06;100560.69;;;10.66;87.68
49461;BME280;35355;49.198;-0.368;2022-11-20T11:21:31;100559.88;;;10.66;87.15
49461;BME280;35355;49.198;-0.368;2022-11-20T11:24:03;100569.41;;;10.68;87.43
49461;BME280;35355;49.198;-0.368;2022-11-20T11:26:29;100563.94;;;10.68;87.06
49461;BME280;35355;49.198;-0.368;2022-11-20T11:29:03;100560.13;;;10.69;86.58
49461;BME280;35355;49.198;-0.368;2022-11-20T11:31:31;100563.41;;;10.71;86.17
49461;BME280;35355;49.198;-0.368;2022-11-20T11:36:33;100560.69;;;10.71;86.29
49461;BME280;35355;49.198;-0.368;2022-11-20T11:39:00;100554.69;;;10.75;85.96
49461;BME280;35355;49.198;-0.368;2022-11-20T11:41:30;100559.06;;;10.76;85.87
49461;BME280;35355;49.198;-0.368;2022-11-20T11:44:01;100557.97;;;10.77;85.52
49461;BME280;35355;49.198;-0.368;2022-11-20T11:46:56;100548.72;;;10.78;85.18
49461;BME280;35355;49.198;-0.368;2022-11-20T11:49:23;100552.25;;;10.78;85.55
49461;BME280;35355;49.198;-0.368;2022-11-20T12:00:08;100557.44;;;10.85;85.52
49461;BME280;35355;49.198;-0.368;2022-11-20T12:02:49;100561.84;;;10.86;84.98
49461;BME280;35355;49.198;-0.368;2022-11-20T12:05:32;100564.56;;;10.86;84.89
49461;BME280;35355;49.198;-0.368;2022-11-20T12:08:43;100558.56;;;10.89;85.32
49461;BME280;35355;49.198;-0.368;2022-11-20T12:11:18;100565.69;;;10.90;84.91
49461;BME280;35355;49.198;-0.368;2022-11-20T12:13:55;100562.94;;;10.95;84.36
49461;BME280;35355;49.198;-0.368;2022-11-20T12:16:23;100564.91;;;11.00;83.91
49461;BME280;35355;49.198;-0.368;2022-11-20T12:18:51;100574.47;;;11.13;84.13
49461;BME280;35355;49.198;-0.368;2022-11-20T12:24:10;100571.28;;;11.52;83.15
49461;BME280;35355;49.198;-0.368;2022-11-20T12:40:28;100596.94;;;12.43;81.56
49461;BME280;35355;49.198;-0.368;2022-11-20T12:56:43;100616.66;;;11.84;79.77
49461;BME280;35355;49.198;-0.368;2022-11-20T12:59:21;100602.44;;;11.61;79.45
49461;BME280;35355;49.198;-0.368;2022-11-20T13:06:58;100592.13;;;10.79;80.72
49461;BME280;35355;49.198;-0.368;2022-11-20T13:09:24;100586.56;;;10.59;81.03
49461;BME280;35355;49.198;-0.368;2022-11-20T13:12:09;100585.09;;;10.41;81.26
49461;BME280;35355;49.198;-0.368;2022-11-20T13:14:54;100573.53;;;10.23;81.90
49461;BME280;35355;49.198;-0.368;2022-11-20T13:19:52;100575.03;;;10.04;82.60
49461;BME280;35355;49.198;-0.368;2022-11-20T13:22:42;100573.09;;;9.99;83.04
49461;BME280;35355;49.198;-0.368;2022-11-20T13:27:49;100593.47;;;9.91;82.97
49461;BME280;35355;49.198;-0.368;2022-11-20T13:30:17;100590.22;;;9.89;83.34
49461;BME280;35355;49.198;-0.368;2022-11-20T13:32:52;100587.97;;;9.86;83.28
49461;BME280;35355;49.198;-0.368;2022-11-20T13:35:35;100593.75;;;9.90;84.08
49461;BME280;35355;49.198;-0.368;2022-11-20T13:40:27;100586.03;;;10.19;84.04
49461;BME280;35355;49.198;-0.368;2022-11-20T13:45:41;100587.88;;;10.46;83.63
49461;BME280;35355;49.198;-0.368;2022-11-20T13:48:24;100594.44;;;10.50;83.64
49461;BME280;35355;49.198;-0.368;2022-11-20T13:51:30;100589.53;;;10.47;84.08
49461;BME280;35355;49.198;-0.368;2022-11-20T14:11:24;100587.91;;;10.56;84.27
49461;BME280;35355;49.198;-0.368;2022-11-20T14:14:29;100580.91;;;10.76;84.00
49461;BME280;35355;49.198;-0.368;2022-11-20T14:16:48;100590.81;;;10.97;83.34
49461;BME280;35355;49.198;-0.368;2022-11-20T14:19:26;100587.00;;;11.09;83.51
49461;BME280;35355;49.198;-0.368;2022-11-20T14:22:07;100589.75;;;11.09;83.07
49461;BME280;35355;49.198;-0.368;2022-11-20T14:24:33;100588.09;;;11.02;82.85
49461;BME280;35355;49.198;-0.368;2022-11-20T14:26:58;100594.09;;;10.94;83.01
49461;BME280;35355;49.198;-0.368;2022-11-20T14:29:28;100591.06;;;10.85;82.91
49461;BME280;35355;49.198;-0.368;2022-11-20T14:31:55;100581.22;;;10.79;83.10
49461;BME280;35355;49.198;-0.368;2022-11-20T14:34:26;100592.38;;;10.73;83.07
49461;BME280;35355;49.198;-0.368;2022-11-20T14:36:57;100590.44;;;10.68;82.98
49461;BME280;35355;49.198;-0.368;2022-11-20T14:39:33;100589.59;;;10.62;83.33
49461;BME280;35355;49.198;-0.368;2022-11-20T14:41:59;100590.66;;;10.56;83.22
49461;BME280;35355;49.198;-0.368;2022-11-20T14:44:31;100594.44;;;10.50;83.27
49461;BME280;35355;49.198;-0.368;2022-11-20T14:46:59;100600.44;;;10.47;83.17
49461;BME280;35355;49.198;-0.368;2022-11-20T14:49:26;100597.97;;;10.45;83.48
49461;BME280;35355;49.198;-0.368;2022-11-20T14:52:15;100591.41;;;10.46;83.51
49461;BME280;35355;49.198;-0.368;2022-11-20T14:54:46;100594.19;;;10.51;83.28
49461;BME280;35355;49.198;-0.368;2022-11-20T14:57:25;100593.38;;;10.56;83.46
49461;BME280;35355;49.198;-0.368;2022-11-20T14:59:51;100601.31;;;10.58;82.83
49461;BME280;35355;49.198;-0.368;2022-11-20T15:02:17;100605.41;;;10.60;83.08
49461;BME280;35355;49.198;-0.368;2022-11-20T15:04:56;100610.34;;;10.63;82.89
49461;BME280;35355;49.198;-0.368;2022-11-20T15:07:38;100607.88;;;10.62;82.48